createdAt,value
2023-04-27T04:15:51.825Z,63.12
2023-04-27T04:16:54.222Z,58.62
2023-04-27T04:17:56.587Z,59.04
2023-04-27T04:19:04.322Z,55.38
2023-04-27T04:20:11.832Z,54.92
2023-04-27T04:21:14.019Z,52.93
2023-04-27T04:22:16.004Z,49.53
2023-04-27T04:23:17.942Z,49.89
2023-04-27T04:24:21.922Z,48.21
2023-04-27T04:25:26.246Z,49.16
2023-04-27T04:26:28.598Z,46.61
2023-04-27T04:27:31.925Z,45.69
2023-04-27T04:28:36.092Z,45.10
2023-04-27T04:29:39.374Z,47.19
2023-04-27T04:30:41.298Z,46.30
2023-04-27T04:31:44.047Z,45.02
2023-04-27T04:32:46.336Z,43.91
2023-04-27T04:33:48.637Z,43.54
2023-04-27T04:34:51.616Z,43.32
2023-04-27T04:35:55.669Z,41.53
2023-04-27T04:36:58.234Z,40.17
2023-04-27T04:38:00.939Z,39.02
2023-04-27T04:39:05.748Z,40.36
2023-04-27T04:40:09.231Z,39.85
2023-04-27T04:41:12.026Z,40.16
2023-04-27T04:42:14.163Z,39.59
2023-04-27T04:43:17.400Z,39.60
2023-04-27T04:44:46.239Z,39.04
2023-04-27T04:45:49.218Z,37.52
2023-04-27T04:46:51.424Z,37.73
2023-04-27T04:47:54.704Z,37.61
2023-04-27T04:48:57.189Z,37.17
2023-04-27T04:49:59.200Z,36.82
2023-04-27T04:51:04.623Z,37.05
2023-04-27T04:52:06.713Z,36.29
2023-04-27T04:53:08.643Z,37.59
2023-04-27T04:54:11.586Z,36.13
2023-04-27T04:55:13.851Z,35.76
2023-04-27T04:56:16.958Z,34.55
2023-04-27T04:57:19.091Z,34.49
2023-04-27T04:58:21.859Z,34.58
2023-04-27T04:59:24.083Z,34.74
2023-04-27T05:00:26.455Z,34.66
2023-04-27T05:01:28.431Z,33.93
2023-04-27T05:02:31.297Z,34.17
2023-04-27T05:03:33.765Z,34.40
2023-04-27T05:04:36.078Z,34.12
2023-04-27T05:05:38.386Z,34.07
2023-04-27T05:06:40.749Z,33.50
2023-04-27T05:07:43.258Z,33.61
2023-04-27T05:08:45.916Z,33.82
2023-04-27T05:09:47.963Z,33.08
2023-04-27T05:10:51.397Z,33.26
2023-04-27T05:11:53.347Z,32.85
2023-04-27T05:12:55.413Z,30.81
2023-04-27T05:13:57.615Z,30.96
2023-04-27T05:14:59.463Z,31.70
2023-04-27T05:16:05.491Z,30.91
2023-04-27T05:17:08.006Z,31.12
2023-04-27T05:18:09.944Z,31.41
2023-04-27T05:19:12.431Z,31.04
2023-04-27T05:20:14.703Z,32.47
2023-04-27T05:21:17.770Z,32.64
2023-04-27T05:22:19.740Z,32.09
2023-04-27T05:23:21.592Z,31.61
2023-04-27T05:24:23.762Z,31.05
2023-04-27T05:25:25.634Z,31.88
2023-04-27T05:26:27.502Z,30.66
2023-04-27T05:27:29.570Z,30.69
2023-04-27T05:28:31.434Z,29.56
2023-04-27T05:29:35.316Z,30.13
2023-04-27T05:30:37.922Z,30.21
2023-04-27T05:31:39.734Z,29.49
2023-04-27T05:32:41.784Z,29.22
2023-04-27T05:33:44.734Z,28.56
2023-04-27T05:34:49.317Z,28.34
2023-04-27T05:35:51.781Z,29.02
2023-04-27T05:36:53.653Z,29.57
2023-04-27T05:37:55.675Z,29.01
2023-04-27T05:38:59.833Z,29.23
2023-04-27T05:40:01.720Z,29.75
2023-04-27T05:41:06.048Z,29.88
2023-04-27T05:42:07.870Z,29.24
2023-04-27T05:43:09.698Z,28.19
2023-04-27T05:44:12.634Z,28.03
2023-04-27T05:45:14.572Z,28.54
2023-04-27T05:46:17.052Z,27.35
2023-04-27T05:47:19.040Z,26.61
2023-04-27T05:48:21.203Z,27.47
2023-04-27T05:49:24.251Z,28.43
2023-04-27T05:50:26.157Z,29.11
2023-04-27T05:51:28.839Z,29.96
2023-04-27T05:52:31.355Z,29.95
2023-04-27T05:53:34.786Z,29.31
2023-04-27T05:54:37.817Z,30.18
2023-04-27T05:55:39.713Z,30.32
2023-04-27T05:56:41.604Z,31.69
2023-04-27T05:57:44.026Z,29.21
2023-04-27T05:58:46.193Z,29.69
2023-04-27T05:59:48.093Z,29.01
2023-04-27T06:00:50.543Z,27.10
2023-04-27T06:01:52.907Z,27.52
2023-04-27T06:02:54.981Z,27.42
2023-04-27T06:04:01.430Z,27.64
2023-04-27T06:05:03.930Z,27.91
2023-04-27T06:06:06.058Z,27.69
2023-04-27T06:07:11.233Z,26.58
2023-04-27T06:08:13.270Z,26.79
2023-04-27T06:09:15.706Z,27.08
2023-04-27T06:10:18.108Z,27.02
2023-04-27T06:11:19.889Z,28.58
2023-04-27T06:12:21.955Z,27.40
2023-04-27T06:13:23.812Z,27.65
2023-04-27T06:14:26.074Z,26.60
2023-04-27T06:15:27.872Z,26.20
2023-04-27T06:16:29.860Z,26.55
2023-04-27T06:17:34.398Z,26.01
2023-04-27T06:18:36.455Z,25.92
2023-04-27T06:19:53.072Z,26.66
2023-04-27T06:21:00.747Z,25.70
2023-04-27T06:22:04.184Z,24.93
2023-04-27T06:28:24.606Z,25.37
2023-04-27T06:29:57.844Z,24.54
2023-04-27T06:32:50.602Z,24.79
2023-04-27T06:39:31.130Z,25.54
2023-04-27T06:43:44.078Z,24.98
2023-04-27T06:44:45.928Z,26.93
2023-04-27T06:45:47.965Z,26.12
2023-04-27T06:46:50.461Z,25.35
2023-04-27T06:47:52.640Z,24.49
2023-04-27T06:48:55.906Z,24.86
2023-04-27T06:49:58.083Z,23.76
2023-04-27T06:51:03.063Z,23.20
2023-04-27T06:52:14.558Z,23.65
2023-04-27T06:53:18.477Z,24.26
2023-04-27T06:54:22.923Z,24.20
2023-04-27T06:55:25.343Z,24.79
2023-04-27T06:56:27.485Z,25.27
2023-04-27T06:58:46.761Z,24.50
2023-04-27T06:59:51.126Z,25.27
2023-04-27T07:00:53.568Z,24.67
2023-04-27T07:01:55.647Z,24.44
2023-04-27T07:02:57.716Z,24.56
2023-04-27T07:04:04.295Z,24.69
2023-04-27T07:05:13.566Z,24.89
2023-04-27T07:06:18.820Z,24.92
2023-04-27T07:07:21.658Z,25.49
2023-04-27T07:08:29.685Z,25.34
2023-04-27T07:09:58.755Z,25.54
2023-04-27T07:11:03.461Z,25.29
2023-04-27T07:12:10.500Z,25.91
2023-04-27T07:13:19.697Z,25.59
2023-04-27T07:15:45.853Z,25.25
2023-04-27T07:18:14.625Z,24.54
2023-04-27T07:22:00.183Z,24.93
2023-04-27T07:25:10.647Z,23.99
2023-04-27T07:26:30.625Z,24.24
2023-04-27T07:27:35.943Z,24.40
2023-04-27T07:28:39.664Z,24.15
2023-04-27T07:29:42.774Z,23.81
2023-04-27T07:32:01.068Z,24.16
2023-04-27T07:33:03.667Z,23.50
2023-04-27T07:34:11.535Z,23.84
2023-04-27T07:35:18.036Z,23.92
2023-04-27T07:36:20.593Z,24.15
2023-04-27T07:37:26.719Z,24.26
2023-04-27T07:38:32.234Z,23.91
2023-04-27T07:39:38.875Z,23.98
2023-04-27T07:40:43.181Z,24.72
2023-04-27T07:41:50.697Z,24.96
2023-04-27T07:44:12.707Z,23.82
2023-04-27T07:45:39.052Z,24.78
2023-04-27T07:46:44.814Z,23.96
2023-04-27T07:47:50.860Z,24.41
2023-04-27T07:48:55.294Z,25.01
2023-04-27T07:49:57.971Z,26.17
2023-04-27T07:51:00.530Z,25.36
2023-04-27T07:52:05.821Z,25.64
2023-04-27T07:53:12.209Z,26.02
2023-04-27T07:55:06.965Z,24.87
2023-04-27T07:56:10.259Z,25.36
2023-04-27T07:57:16.075Z,25.71
2023-04-27T07:58:22.456Z,25.41
2023-04-27T07:59:54.027Z,25.64
2023-04-27T08:04:51.048Z,25.95
2023-04-27T08:07:12.895Z,25.19
2023-04-27T08:08:22.988Z,25.76
2023-04-27T08:10:42.666Z,24.88
2023-04-27T08:11:58.829Z,24.93
2023-04-27T08:13:03.296Z,26.17
2023-04-27T08:14:07.846Z,25.74
2023-04-27T08:15:16.814Z,25.16
2023-04-27T08:16:20.381Z,26.95
2023-04-27T08:17:26.255Z,27.59
2023-04-27T08:18:35.416Z,27.29
2023-04-27T08:20:06.959Z,26.28
2023-04-27T08:21:10.180Z,26.24
2023-04-27T08:22:14.035Z,25.79
2023-04-27T08:23:16.508Z,25.17
2023-04-27T08:24:21.281Z,25.98
2023-04-27T08:25:29.133Z,26.03
2023-04-27T08:26:31.887Z,27.91
2023-04-27T08:27:34.861Z,28.73
2023-04-27T08:28:50.659Z,26.76
2023-04-27T08:29:55.589Z,28.27
2023-04-27T08:31:00.727Z,28.89
2023-04-27T08:32:05.230Z,26.50
2023-04-27T08:33:10.129Z,26.77
2023-04-27T08:34:13.941Z,25.93
2023-04-27T08:35:20.681Z,26.06
2023-04-27T08:36:29.098Z,25.64
2023-04-27T08:37:32.484Z,25.72
2023-04-27T08:38:40.678Z,26.39
2023-04-27T08:39:47.748Z,25.45
2023-04-27T08:40:54.980Z,26.45
2023-04-27T08:42:07.993Z,27.07
2023-04-27T08:43:13.701Z,28.18
2023-04-27T08:44:16.402Z,28.13
2023-04-27T08:45:23.288Z,27.64
2023-04-27T08:46:28.618Z,28.57
2023-04-27T08:48:52.001Z,28.07
2023-04-27T08:49:58.602Z,28.38
2023-04-27T08:52:27.922Z,29.37
2023-04-27T08:53:32.957Z,28.53
2023-04-27T08:57:16.668Z,28.69
2023-04-27T08:59:40.650Z,28.97
2023-04-27T09:00:46.262Z,29.03
2023-04-27T09:02:15.261Z,28.56
2023-04-27T09:03:26.568Z,30.44
2023-04-27T09:04:40.622Z,30.36
2023-04-27T09:10:49.138Z,31.60
2023-04-27T09:14:27.116Z,33.53
2023-04-27T09:15:57.651Z,32.38
2023-04-27T09:18:35.698Z,33.15
2023-04-27T09:19:39.285Z,33.63
2023-04-27T09:22:47.726Z,34.04
2023-04-27T09:28:33.088Z,38.80
2023-04-27T09:41:11.526Z,37.16
2023-04-27T09:43:37.379Z,35.77
2023-04-27T09:44:41.808Z,36.34
2023-04-27T09:45:44.696Z,36.15
2023-04-27T09:46:50.977Z,36.55
2023-04-27T09:48:07.039Z,37.62
2023-04-27T09:49:31.865Z,37.02
2023-04-27T09:51:59.051Z,36.83
2023-04-27T09:54:18.405Z,36.56
2023-04-27T09:57:08.739Z,36.65
2023-04-27T09:58:40.161Z,35.72
2023-04-27T10:03:30.586Z,36.27
2023-04-27T10:05:13.514Z,36.66
2023-04-27T10:07:43.016Z,36.49
2023-04-27T10:08:46.055Z,36.37
2023-04-27T10:11:20.857Z,37.38
2023-04-27T10:12:34.068Z,37.83
2023-04-27T10:13:38.297Z,37.64
2023-04-27T10:15:15.839Z,37.45
2023-04-27T10:18:56.644Z,39.05
2023-04-27T10:21:38.179Z,40.02
2023-04-27T10:22:55.760Z,40.05
2023-04-27T10:24:10.884Z,40.31
2023-04-27T10:25:20.502Z,41.17
2023-04-27T10:26:27.829Z,42.39
2023-04-27T10:27:39.816Z,42.11
2023-04-27T10:30:22.816Z,42.83
2023-04-27T10:31:32.309Z,42.90
2023-04-27T10:32:38.083Z,42.50
2023-04-27T10:33:46.594Z,42.43
2023-04-27T10:35:07.156Z,43.36
2023-04-27T10:36:20.339Z,43.54
2023-04-27T10:41:07.813Z,43.12
2023-04-27T10:42:14.684Z,42.09
2023-04-27T10:43:25.903Z,42.15
2023-04-27T10:44:31.737Z,42.76
2023-04-27T10:45:37.900Z,42.14
2023-04-27T10:46:52.782Z,42.46
2023-04-27T10:48:01.360Z,42.42
2023-04-27T10:49:05.991Z,42.81
2023-04-27T10:50:14.658Z,41.42
2023-04-27T10:54:06.945Z,40.40
2023-04-27T10:55:22.879Z,40.53
2023-04-27T10:56:25.398Z,41.35
2023-04-27T10:57:27.731Z,41.62
2023-04-27T10:58:45.334Z,43.28
2023-04-27T10:59:56.665Z,46.06
2023-04-27T11:00:59.790Z,47.06
2023-04-27T11:02:03.428Z,49.26
2023-04-27T11:03:19.912Z,48.80
2023-04-27T11:04:22.463Z,50.03
2023-04-27T11:05:33.651Z,51.04
2023-04-27T11:06:43.077Z,52.18
2023-04-27T11:07:47.364Z,51.11
2023-04-27T11:08:50.102Z,51.28
2023-04-27T11:09:53.700Z,52.66
2023-04-27T11:10:57.769Z,53.63
2023-04-27T11:11:59.932Z,54.67
2023-04-27T11:13:10.478Z,51.69
2023-04-27T11:14:20.474Z,51.68
2023-04-27T11:15:22.737Z,50.74
2023-04-27T11:16:24.781Z,50.74
2023-04-27T11:17:31.100Z,51.64
2023-04-27T11:18:33.873Z,50.87
2023-04-27T11:19:47.368Z,50.21
2023-04-27T11:20:52.633Z,52.04
2023-04-27T11:22:08.868Z,54.51
2023-04-27T11:23:15.060Z,54.29
2023-04-27T11:24:17.460Z,54.92
2023-04-27T11:25:30.620Z,54.76
2023-04-27T11:26:33.498Z,54.57
2023-04-27T11:27:43.300Z,55.00
2023-04-27T11:28:59.912Z,54.50
2023-04-27T11:30:27.530Z,55.92
2023-04-27T11:31:40.759Z,54.25
2023-04-27T11:32:43.145Z,53.68
2023-04-27T11:33:52.131Z,52.87
2023-04-27T11:35:20.332Z,51.78
2023-04-27T11:36:26.691Z,51.97
2023-04-27T11:37:32.019Z,51.42
2023-04-27T11:38:37.450Z,50.89
2023-04-27T11:39:43.967Z,51.46
2023-04-27T11:41:05.562Z,50.01
2023-04-27T11:42:25.211Z,49.22
2023-04-27T11:43:28.626Z,48.14
2023-04-27T11:44:31.148Z,47.56
2023-04-27T11:45:34.828Z,47.73
2023-04-27T11:46:40.764Z,49.35
2023-04-27T11:47:48.252Z,48.85
2023-04-27T11:48:52.742Z,48.60
2023-04-27T11:49:57.264Z,47.78
2023-04-27T11:51:00.676Z,47.53
2023-04-27T11:52:02.932Z,47.73
2023-04-27T11:53:04.910Z,47.81
2023-04-27T11:54:07.885Z,47.62
2023-04-27T11:55:16.404Z,47.62
2023-04-27T11:56:20.983Z,47.88
2023-04-27T11:57:29.546Z,47.72
2023-04-27T11:58:39.116Z,48.97
2023-04-27T11:59:42.045Z,50.06
2023-04-27T12:01:10.837Z,50.57
2023-04-27T12:02:17.561Z,50.45
2023-04-27T12:03:23.018Z,51.08
2023-04-27T12:04:26.704Z,52.25
2023-04-27T12:05:30.524Z,53.56
2023-04-27T12:06:34.099Z,54.13
2023-04-27T12:07:38.187Z,55.34
2023-04-27T12:08:40.600Z,55.52
2023-04-27T12:09:43.572Z,57.06
2023-04-27T12:10:46.974Z,55.97
2023-04-27T12:11:51.198Z,55.15
2023-04-27T12:12:53.546Z,54.41
2023-04-27T12:15:18.731Z,54.75
2023-04-27T12:16:23.289Z,53.58
2023-04-27T12:17:26.793Z,53.52
2023-04-27T12:18:28.891Z,53.29
2023-04-27T12:19:31.525Z,50.18
2023-04-27T12:20:38.692Z,48.89
2023-04-27T12:21:46.201Z,48.76
2023-04-27T12:22:48.620Z,48.63
2023-04-27T12:23:50.830Z,48.45
2023-04-27T12:24:52.942Z,50.05
2023-04-27T12:25:55.022Z,50.25
2023-04-27T12:26:57.664Z,50.60
2023-04-27T12:29:20.618Z,50.74
2023-04-27T12:30:27.390Z,50.94
2023-04-27T12:31:29.406Z,50.61
2023-04-27T12:32:31.914Z,51.34
2023-04-27T12:33:37.038Z,50.34
2023-04-27T12:34:42.517Z,51.10
2023-04-27T12:35:48.458Z,51.71
2023-04-27T12:37:00.910Z,51.41
2023-04-27T12:39:26.821Z,51.87
2023-04-27T12:40:31.680Z,52.22
2023-04-27T12:41:33.728Z,52.34
2023-04-27T12:42:39.036Z,52.38
2023-04-27T12:43:41.336Z,52.82
2023-04-27T12:44:43.530Z,52.53
2023-04-27T12:45:45.975Z,53.12
2023-04-27T12:46:50.224Z,52.83
2023-04-27T12:49:12.827Z,52.46
2023-04-27T12:50:16.098Z,52.90
2023-04-27T12:51:18.725Z,52.41
2023-04-27T12:52:21.029Z,51.42
2023-04-27T12:53:25.091Z,51.44
2023-04-27T12:54:28.224Z,48.71
2023-04-27T12:55:34.489Z,48.27
2023-04-27T12:56:36.999Z,47.63
2023-04-27T12:57:39.081Z,46.97
2023-04-27T12:58:44.161Z,47.04
2023-04-27T12:59:47.317Z,46.97
2023-04-27T13:00:50.619Z,46.80
2023-04-27T13:01:53.234Z,47.73
2023-04-27T13:02:56.861Z,48.06
2023-04-27T13:04:01.513Z,46.28
2023-04-27T13:05:04.861Z,46.11
2023-04-27T13:06:08.408Z,45.99
2023-04-27T13:07:10.660Z,46.86
2023-04-27T13:08:12.761Z,46.86
2023-04-27T13:09:15.115Z,47.14
2023-04-27T13:10:20.919Z,46.88
2023-04-27T13:11:24.320Z,46.25
2023-04-27T13:12:26.394Z,46.55
2023-04-27T13:13:28.505Z,46.55
2023-04-27T13:14:32.333Z,46.91
2023-04-27T13:15:35.304Z,47.31
2023-04-27T13:16:38.763Z,47.51
2023-04-27T13:17:43.501Z,48.28
2023-04-27T13:18:49.512Z,46.45
2023-04-27T13:19:51.582Z,46.53
2023-04-27T13:20:54.934Z,46.05
2023-04-27T13:21:57.124Z,46.47
2023-04-27T13:22:59.347Z,46.88
2023-04-27T13:24:04.250Z,46.41
2023-04-27T13:25:07.940Z,47.19
2023-04-27T13:26:11.451Z,46.27
2023-04-27T13:27:14.206Z,46.95
2023-04-27T13:28:16.579Z,47.02
2023-04-27T13:29:18.887Z,46.84
2023-04-27T13:30:21.141Z,46.96
2023-04-27T13:31:23.420Z,47.33
2023-04-27T13:32:25.739Z,47.10
2023-04-27T13:33:27.929Z,46.61
2023-04-27T13:34:30.455Z,46.85
2023-04-27T13:35:33.913Z,46.86
2023-04-27T13:36:35.855Z,47.69
2023-04-27T13:37:40.925Z,47.24
2023-04-27T13:38:43.018Z,47.28
2023-04-27T13:39:45.038Z,47.38
2023-04-27T13:40:48.137Z,47.99
2023-04-27T13:41:50.400Z,47.52
2023-04-27T13:42:53.155Z,47.97
2023-04-27T13:43:55.165Z,49.21
2023-04-27T13:44:57.355Z,48.32
2023-04-27T13:46:05.023Z,48.19
2023-04-27T13:47:08.326Z,48.78
2023-04-27T13:48:10.998Z,48.78
2023-04-27T13:49:13.077Z,49.13
2023-04-27T13:50:15.686Z,48.71
2023-04-27T13:51:20.089Z,48.15
2023-04-27T13:52:22.211Z,48.20
2023-04-27T13:53:27.497Z,48.21
2023-04-27T13:54:29.650Z,48.28
2023-04-27T13:55:37.309Z,48.34
2023-04-27T13:56:39.372Z,48.75
2023-04-27T13:57:41.745Z,48.89
2023-04-27T13:58:43.821Z,49.37
2023-04-27T13:59:45.921Z,49.53
2023-04-27T14:00:49.228Z,49.06
2023-04-27T14:01:51.420Z,49.48
2023-04-27T14:02:53.777Z,49.13
2023-04-27T14:03:56.434Z,49.69
2023-04-27T14:04:58.933Z,49.58
2023-04-27T14:06:02.518Z,50.40
2023-04-27T14:07:05.171Z,49.92
2023-04-27T14:08:07.403Z,49.96
2023-04-27T14:09:09.701Z,49.89
2023-04-27T14:10:11.667Z,50.02
2023-04-27T14:11:19.112Z,50.16
2023-04-27T14:12:21.106Z,50.14
2023-04-27T14:13:23.141Z,49.73
2023-04-27T14:14:25.307Z,49.67
2023-04-27T14:15:29.012Z,49.80
2023-04-27T14:16:31.408Z,49.64
2023-04-27T14:17:33.416Z,49.73
2023-04-27T14:18:36.523Z,49.95
2023-04-27T14:19:38.554Z,50.19
2023-04-27T14:20:42.247Z,50.12
2023-04-27T14:21:44.369Z,50.30
2023-04-27T14:22:46.841Z,49.90
2023-04-27T14:23:48.781Z,49.54
2023-04-27T14:24:50.739Z,49.37
2023-04-27T14:25:57.609Z,49.19
2023-04-27T14:27:00.433Z,49.38
2023-04-27T14:28:06.022Z,49.04
2023-04-27T14:29:12.537Z,49.10
2023-04-27T14:30:17.044Z,49.35
2023-04-27T14:31:22.240Z,49.43
2023-04-27T14:32:25.297Z,48.98
2023-04-27T14:33:27.593Z,49.89
2023-04-27T14:34:30.055Z,50.19
2023-04-27T14:35:34.907Z,49.87
2023-04-27T14:36:37.229Z,49.96
2023-04-27T14:37:41.044Z,49.80
2023-04-27T14:38:44.880Z,50.31
2023-04-27T14:39:47.040Z,49.65
2023-04-27T14:40:49.238Z,49.03
2023-04-27T14:41:51.147Z,49.29
2023-04-27T14:42:53.100Z,49.39
2023-04-27T14:43:55.451Z,48.92
2023-04-27T14:44:57.347Z,49.34
2023-04-27T14:46:19.203Z,50.28
2023-04-27T14:47:22.808Z,50.66
2023-04-27T14:48:25.038Z,50.84
2023-04-27T14:49:27.044Z,52.41
2023-04-27T14:50:28.994Z,50.85
2023-04-27T14:51:32.697Z,49.90
2023-04-27T14:52:34.791Z,50.08
2023-04-27T14:53:37.026Z,49.61
2023-04-27T14:54:39.572Z,49.30
2023-04-27T14:55:45.928Z,49.32
2023-04-27T14:56:48.100Z,49.66
2023-04-27T14:57:50.299Z,49.22
2023-04-27T14:58:52.467Z,49.04
2023-04-27T14:59:54.591Z,49.30
2023-04-27T15:01:02.343Z,50.64
2023-04-27T15:02:04.944Z,49.57
2023-04-27T15:03:07.322Z,49.54
2023-04-27T15:04:12.911Z,49.50
2023-04-27T15:05:14.999Z,49.88
2023-04-27T15:06:18.083Z,49.57
2023-04-27T15:07:21.630Z,49.83
2023-04-27T15:08:23.597Z,49.11
2023-04-27T15:09:25.596Z,48.43
2023-04-27T15:10:27.604Z,48.32
2023-04-27T15:11:30.971Z,48.86
2023-04-27T15:12:32.999Z,48.54
2023-04-27T15:13:35.689Z,48.38
2023-04-27T15:14:37.474Z,48.17
2023-04-27T15:15:40.730Z,48.43
2023-04-27T15:16:42.624Z,48.85
2023-04-27T15:17:44.419Z,49.18
2023-04-27T15:18:46.270Z,49.27
2023-04-27T15:19:48.253Z,49.13
2023-04-27T15:20:52.662Z,48.83
2023-04-27T15:21:54.491Z,48.80
2023-04-27T15:22:56.396Z,49.21
2023-04-27T15:23:58.385Z,49.69
2023-04-27T15:25:00.434Z,49.81
2023-04-27T15:26:02.864Z,49.83
2023-04-27T15:27:04.780Z,49.64
2023-04-27T15:28:06.619Z,49.85
2023-04-27T15:29:08.519Z,49.87
2023-04-27T15:30:10.798Z,49.76
2023-04-27T15:31:13.026Z,49.84
2023-04-27T15:32:16.296Z,50.37
2023-04-27T15:33:18.834Z,50.49
2023-04-27T15:34:21.189Z,50.55
2023-04-27T15:35:23.092Z,50.65
2023-04-27T15:36:28.417Z,51.54
2023-04-27T15:37:30.542Z,53.22
2023-04-27T15:38:32.362Z,52.90
2023-04-27T15:39:34.193Z,52.74
2023-04-27T15:40:36.183Z,52.38
2023-04-27T15:41:38.222Z,53.31
2023-04-27T15:42:40.069Z,51.92
2023-04-27T15:43:42.109Z,51.98
2023-04-27T15:44:44.021Z,51.54
2023-04-27T15:45:46.185Z,51.80
2023-04-27T15:46:48.174Z,52.13
2023-04-27T15:47:50.225Z,51.58
2023-04-27T15:48:52.334Z,51.72
2023-04-27T15:49:57.974Z,53.64
2023-04-27T15:51:01.121Z,51.91
2023-04-27T15:52:03.714Z,51.52
2023-04-27T15:53:05.580Z,51.46
2023-04-27T15:54:07.468Z,52.38
2023-04-27T15:55:09.922Z,52.90
2023-04-27T15:56:12.095Z,52.43
2023-04-27T15:57:14.028Z,52.08
2023-04-27T15:58:16.810Z,52.64
2023-04-27T15:59:19.402Z,53.17
2023-04-27T16:00:22.334Z,52.46
2023-04-27T16:01:26.037Z,53.23
2023-04-27T16:02:28.156Z,52.67
2023-04-27T16:03:30.258Z,52.60
2023-04-27T16:04:32.415Z,53.03
2023-04-27T16:05:34.197Z,53.63
2023-04-27T16:06:37.368Z,53.56
2023-04-27T16:07:39.955Z,52.78
2023-04-27T16:08:42.027Z,52.96
2023-04-27T16:09:43.900Z,53.59
2023-04-27T16:10:48.011Z,53.40
2023-04-27T16:11:49.904Z,52.76
2023-04-27T16:12:51.769Z,52.89
2023-04-27T16:13:53.554Z,53.21
2023-04-27T16:14:59.088Z,53.29
2023-04-27T16:16:01.305Z,53.40
2023-04-27T16:17:03.381Z,54.08
2023-04-27T16:18:05.620Z,54.36
2023-04-27T16:19:08.791Z,55.12
2023-04-27T16:20:10.771Z,55.50
2023-04-27T16:21:12.822Z,54.45
2023-04-27T16:22:14.741Z,54.25
2023-04-27T16:23:17.133Z,54.42
2023-04-27T16:24:19.609Z,54.78
2023-04-27T16:25:21.527Z,55.31
2023-04-27T16:26:26.551Z,55.16
2023-04-27T16:27:29.956Z,55.45
2023-04-27T16:28:32.859Z,55.45
2023-04-27T16:29:35.368Z,55.73
2023-04-27T16:30:38.249Z,54.95
2023-04-27T16:31:42.776Z,55.53
2023-04-27T16:32:45.038Z,55.08
2023-04-27T16:33:48.293Z,55.24
2023-04-27T16:34:50.206Z,55.54
2023-04-27T16:35:52.492Z,55.99
2023-04-27T16:36:55.045Z,56.22
2023-04-27T16:37:56.913Z,56.57
2023-04-27T16:38:58.836Z,56.75
2023-04-27T16:40:04.892Z,56.71
2023-04-27T16:41:07.935Z,56.62
2023-04-27T16:42:10.198Z,56.56
2023-04-27T16:43:12.007Z,56.88
2023-04-27T16:44:14.370Z,57.19
2023-04-27T16:45:16.346Z,57.23
2023-04-27T16:46:18.651Z,57.53
2023-04-27T16:47:20.853Z,57.80
2023-04-27T16:48:22.759Z,57.83
2023-04-27T16:49:24.547Z,58.05
2023-04-27T16:50:27.351Z,58.96
2023-04-27T16:51:31.096Z,59.44
2023-04-27T16:52:33.002Z,58.91
2023-04-27T16:53:34.848Z,59.16
2023-04-27T16:54:37.105Z,59.13
2023-04-27T16:55:39.127Z,59.57
2023-04-27T16:56:41.357Z,59.83
2023-04-27T16:57:43.112Z,59.39
2023-04-27T16:58:44.983Z,59.48
2023-04-27T16:59:47.206Z,60.03
2023-04-27T17:00:49.088Z,59.94
2023-04-27T17:01:51.522Z,60.13
2023-04-27T17:02:53.870Z,60.45
2023-04-27T17:03:57.772Z,59.81
2023-04-27T17:05:04.095Z,60.30
2023-04-27T17:06:18.913Z,61.08
2023-04-27T17:07:34.771Z,61.01
2023-04-27T17:08:36.961Z,60.85
2023-04-27T17:09:39.390Z,61.07
2023-04-27T17:10:41.737Z,61.22
2023-04-27T17:11:46.294Z,61.58
2023-04-27T17:12:48.785Z,62.06
2023-04-27T17:13:51.701Z,61.86
2023-04-27T17:14:53.691Z,61.45
2023-04-27T17:15:55.736Z,62.01
2023-04-27T17:16:58.063Z,61.90
2023-04-27T17:18:04.875Z,62.17
2023-04-27T17:19:06.757Z,62.57
2023-04-27T17:20:09.661Z,62.91
2023-04-27T17:21:12.972Z,63.77
2023-04-27T17:22:14.973Z,63.26
2023-04-27T17:23:16.841Z,63.13
2023-04-27T17:24:19.348Z,63.00
2023-04-27T17:25:21.802Z,63.53
2023-04-27T17:26:27.319Z,63.01
2023-04-27T17:27:29.252Z,63.34
2023-04-27T17:28:31.578Z,63.66
2023-04-27T17:29:33.590Z,63.65
2023-04-27T17:30:35.740Z,63.89
2023-04-27T17:31:38.837Z,63.91
2023-04-27T17:32:41.283Z,63.74
2023-04-27T17:33:43.749Z,64.26
2023-04-27T17:34:46.538Z,64.45
2023-04-27T17:35:48.390Z,64.53
2023-04-27T17:36:50.455Z,64.26
2023-04-27T17:37:53.307Z,64.14
2023-04-27T17:38:55.248Z,64.80
2023-04-27T17:39:57.240Z,64.96
2023-04-27T17:40:59.154Z,65.30
2023-04-27T17:42:01.540Z,65.62
2023-04-27T17:43:03.609Z,66.34
2023-04-27T17:44:05.760Z,65.45
2023-04-27T17:45:08.487Z,65.44
2023-04-27T17:46:11.168Z,65.64
2023-04-27T17:47:13.892Z,65.73
2023-04-27T17:48:16.462Z,65.64
2023-04-27T17:49:19.187Z,64.94
2023-04-27T17:50:21.053Z,65.53
2023-04-27T17:51:23.443Z,66.07
2023-04-27T17:52:25.447Z,68.64
2023-04-27T17:53:27.430Z,70.25
2023-04-27T17:54:30.183Z,70.25
2023-04-27T17:55:32.441Z,70.25
2023-04-27T17:56:35.777Z,70.32
2023-04-27T17:57:37.653Z,70.96
2023-04-27T17:58:39.644Z,70.14
2023-04-27T17:59:41.550Z,69.42
2023-04-27T18:00:43.831Z,68.77
2023-04-27T18:01:47.107Z,68.82
2023-04-27T18:02:49.914Z,68.70
2023-04-27T18:03:52.350Z,68.69
2023-04-27T18:04:54.443Z,68.77
2023-04-27T18:05:56.533Z,69.46
2023-04-27T18:06:58.698Z,69.53
2023-04-27T18:08:01.408Z,69.70
2023-04-27T18:09:03.920Z,69.82
2023-04-27T18:10:07.642Z,70.28
2023-04-27T18:11:09.768Z,70.63
2023-04-27T18:12:12.517Z,71.22
2023-04-27T18:13:14.669Z,70.91
2023-04-27T18:14:16.837Z,71.08
2023-04-27T18:15:19.796Z,70.57
2023-04-27T18:16:22.058Z,70.73
2023-04-27T18:17:25.243Z,71.02
2023-04-27T18:18:28.288Z,71.46
2023-04-27T18:19:32.284Z,71.02
2023-04-27T18:20:34.897Z,71.04
2023-04-27T18:21:38.150Z,71.41
2023-04-27T18:22:41.942Z,71.08
2023-04-27T18:23:44.791Z,71.19
2023-04-27T18:24:47.842Z,72.58
2023-04-27T18:25:50.474Z,71.52
2023-04-27T18:26:52.632Z,71.81
2023-04-27T18:27:56.441Z,72.02
2023-04-27T18:28:59.825Z,76.41
2023-04-27T18:30:02.080Z,80.61
2023-04-27T18:31:21.202Z,77.36
2023-04-27T18:32:23.269Z,76.18
2023-04-27T18:33:27.049Z,79.43
2023-04-27T18:34:33.953Z,79.24
2023-04-27T18:35:38.021Z,78.89
2023-04-27T18:36:53.038Z,77.18
2023-04-27T18:38:02.164Z,77.16
2023-04-27T18:39:10.215Z,76.20
2023-04-27T18:40:28.821Z,75.16
2023-04-27T18:41:42.014Z,74.26
2023-04-27T18:42:47.364Z,74.48
2023-04-27T18:43:49.664Z,74.44
2023-04-27T18:44:55.027Z,76.69
2023-04-27T18:45:57.173Z,77.33
2023-04-27T18:47:00.911Z,80.93
2023-04-27T18:48:03.225Z,77.18
2023-04-27T18:49:07.455Z,77.72
2023-04-27T18:50:11.052Z,78.35
2023-04-27T18:51:14.625Z,75.73
2023-04-27T18:52:22.231Z,74.23
2023-04-27T18:53:25.137Z,74.75
2023-04-27T18:56:24.813Z,75.19
2023-04-27T18:57:26.920Z,74.46
2023-04-27T18:58:31.228Z,74.95
2023-04-27T18:59:33.973Z,75.39
2023-04-27T19:00:40.341Z,74.52
2023-04-27T19:01:43.881Z,75.34
2023-04-27T19:02:48.011Z,75.20
2023-04-27T19:04:00.920Z,74.75
2023-04-27T19:05:12.827Z,75.65
2023-04-27T19:06:20.980Z,75.99
2023-04-27T19:07:28.846Z,75.73
2023-04-27T19:08:31.760Z,75.27
2023-04-27T19:09:35.093Z,75.90
2023-04-27T19:10:37.564Z,77.02
2023-04-27T19:11:41.292Z,77.01
2023-04-27T19:12:44.844Z,79.45
2023-04-27T19:13:47.716Z,80.33
2023-04-27T19:14:52.364Z,78.19
2023-04-27T19:15:55.331Z,78.15
2023-04-27T19:17:07.925Z,77.81
2023-04-27T19:18:11.661Z,77.94
2023-04-27T19:19:14.481Z,77.75
2023-04-27T19:20:16.775Z,77.76
2023-04-27T19:21:18.793Z,78.24
2023-04-27T19:22:21.252Z,78.43
2023-04-27T19:23:23.343Z,78.86
2023-04-27T19:24:26.374Z,78.91
2023-04-27T19:25:28.501Z,78.84
2023-04-27T19:26:31.416Z,80.68
2023-04-27T19:27:45.079Z,80.16
2023-04-27T19:28:48.283Z,80.36
2023-04-27T19:31:46.688Z,81.38
2023-04-27T19:32:48.661Z,81.82
2023-04-27T19:33:55.193Z,82.35
2023-04-27T19:36:59.030Z,82.49
2023-04-27T19:38:13.271Z,82.94
2023-04-27T19:39:20.286Z,83.93
2023-04-27T19:40:22.637Z,83.53
2023-04-27T19:41:25.370Z,83.91
2023-04-27T19:43:50.516Z,83.58
2023-04-27T19:45:04.181Z,83.93
2023-04-27T19:46:24.914Z,84.81
2023-04-27T20:08:32.176Z,91.23
2023-04-27T20:09:39.142Z,92.14
2023-04-27T20:10:43.285Z,92.03
2023-04-27T20:11:49.458Z,91.62
2023-04-27T20:13:00.455Z,92.02
2023-04-27T20:17:10.916Z,93.12
2023-04-27T20:18:14.433Z,93.28